Time;durP1;ratioP1;P1;durP2;ratioP2;P2;SDS_P1;SDS_P2;PMS_P1;PMS_P2;Temp;Humidity;BMP_temperature;BMP_pressure;BME280_temperature;BME280_humidity;BME280_pressure;Samples;Min_cycle;Max_cycle;Signal;HPM_P1;HPM_P2
2022/03/08 00:00:19;;;;;;;;;;;-1.20;99.90;;;;;;5094465;28;19957;-40
2022/03/08 00:02:45;;;;;;;;;;;-1.20;99.90;;;;;;5094098;28;20415;-40
2022/03/08 00:05:11;;;;;;;;;;;-1.20;99.90;;;;;;5093347;28;19908;-40
2022/03/08 00:07:36;;;;;;;;;;;-1.20;99.90;;;;;;5094166;28;19912;-40
2022/03/08 00:10:03;;;;;;;;;;;-1.20;99.90;;;;;;5094287;28;19957;-40
2022/03/08 00:12:28;;;;;;;;;;;-1.20;99.90;;;;;;5094532;28;19904;-40
2022/03/08 00:14:54;;;;;;;;;;;-1.20;99.90;;;;;;5093934;28;19904;-41
2022/03/08 00:17:19;;;;;;;;;;;-1.20;99.90;;;;;;5093967;28;20235;-41
2022/03/08 00:19:45;;;;;;;;;;;-1.20;99.90;;;;;;5092694;28;19988;-40
2022/03/08 00:22:10;;;;;;;;;;;-1.20;99.90;;;;;;5093825;28;19908;-40
2022/03/08 00:24:36;;;;;;;;;;;-1.20;99.90;;;;;;5094450;28;19908;-40
2022/03/08 00:27:01;;;;;;;;;;;-1.20;99.90;;;;;;5092742;28;19904;-41
2022/03/08 00:29:27;;;;;;;;;;;-1.20;99.90;;;;;;5094219;28;19923;-41
2022/03/08 00:31:52;;;;;;;;;;;-1.20;99.90;;;;;;5093651;28;19947;-41
2022/03/08 00:34:19;;;;;;;;;;;-1.30;99.90;;;;;;5093683;28;19911;-41
2022/03/08 00:36:44;;;;;;;;;;;-1.30;99.90;;;;;;5094409;28;19957;-40
2022/03/08 00:39:10;;;;;;;;;;;-1.30;99.90;;;;;;5094025;28;19904;-41
2022/03/08 00:41:37;;;;;;;;;;;-1.30;99.90;;;;;;5093607;28;19935;-40
2022/03/08 00:44:03;;;;;;;;;;;-1.30;99.90;;;;;;5093997;28;19930;-39
2022/03/08 00:46:29;;;;;;;;;;;-1.40;99.90;;;;;;5093728;28;19908;-40
2022/03/08 00:48:55;;;;;;;;;;;-1.40;99.90;;;;;;5093831;28;19904;-40
2022/03/08 00:51:21;;;;;;;;;;;-1.30;99.90;;;;;;5095099;28;20308;-40
2022/03/08 00:53:48;;;;;;;;;;;-1.50;99.90;;;;;;5097918;28;19905;-39
2022/03/08 00:56:14;;;;;;;;;;;-1.50;99.90;;;;;;5097879;28;19904;-40
2022/03/08 00:58:41;;;;;;;;;;;-1.50;99.90;;;;;;5097525;28;20376;-40
2022/03/08 01:01:06;;;;;;;;;;;-1.50;99.90;;;;;;5097835;28;19911;-40
2022/03/08 01:03:32;;;;;;;;;;;-1.60;99.90;;;;;;5097658;28;19908;-40
2022/03/08 01:05:58;;;;;;;;;;;-1.60;99.90;;;;;;5097653;28;20254;-40
2022/03/08 01:08:23;;;;;;;;;;;-1.70;99.90;;;;;;5097688;28;19904;-40
2022/03/08 01:10:49;;;;;;;;;;;-1.80;99.90;;;;;;5097691;28;20338;-40
2022/03/08 01:13:14;;;;;;;;;;;-1.70;99.90;;;;;;5097427;28;19911;-40
2022/03/08 01:15:40;;;;;;;;;;;-1.70;99.90;;;;;;5097419;28;19961;-40
2022/03/08 01:18:05;;;;;;;;;;;-1.80;99.90;;;;;;5097055;28;19904;-39
2022/03/08 01:20:31;;;;;;;;;;;-1.80;99.90;;;;;;5096090;28;19904;-41
2022/03/08 01:22:57;;;;;;;;;;;-1.80;99.90;;;;;;5097155;28;19908;-41
2022/03/08 01:25:23;;;;;;;;;;;-1.80;99.90;;;;;;5097340;28;19908;-41
2022/03/08 01:27:49;;;;;;;;;;;-1.80;99.90;;;;;;5097030;28;19912;-40
2022/03/08 01:30:15;;;;;;;;;;;-1.90;99.90;;;;;;5097413;28;19919;-40
2022/03/08 01:32:41;;;;;;;;;;;-1.80;99.90;;;;;;5097503;28;19911;-39
2022/03/08 01:35:07;;;;;;;;;;;-1.80;99.90;;;;;;5097178;28;19999;-40
2022/03/08 01:37:32;;;;;;;;;;;-1.90;99.90;;;;;;5097112;28;19908;-41
2022/03/08 01:39:58;;;;;;;;;;;-1.80;99.90;;;;;;5097395;28;20357;-40
2022/03/08 01:42:25;;;;;;;;;;;-1.70;99.90;;;;;;5096662;28;19961;-40
2022/03/08 01:44:51;;;;;;;;;;;-1.80;99.90;;;;;;5096987;28;19911;-40
2022/03/08 01:47:18;;;;;;;;;;;-1.80;99.90;;;;;;5096929;28;19911;-39
2022/03/08 01:49:44;;;;;;;;;;;-1.80;99.90;;;;;;5096470;28;19910;-40
2022/03/08 01:52:10;;;;;;;;;;;-1.80;99.90;;;;;;5096579;28;19908;-39
2022/03/08 01:54:35;;;;;;;;;;;-1.90;99.90;;;;;;5096867;28;19943;-40
2022/03/08 01:57:01;;;;;;;;;;;-1.90;99.90;;;;;;5096687;28;19904;-39
2022/03/08 01:59:27;;;;;;;;;;;-2.00;99.90;;;;;;5096437;28;19974;-39
2022/03/08 02:01:53;;;;;;;;;;;-1.90;99.90;;;;;;5096203;28;20385;-40
2022/03/08 02:04:18;;;;;;;;;;;-1.80;99.90;;;;;;5096486;28;19915;-39
2022/03/08 02:06:44;;;;;;;;;;;-1.80;99.90;;;;;;5096578;28;20242;-39
2022/03/08 02:09:10;;;;;;;;;;;-1.80;99.90;;;;;;5096220;28;19950;-40
2022/03/08 02:11:36;;;;;;;;;;;-1.80;99.90;;;;;;5096170;28;19908;-40
2022/03/08 02:14:02;;;;;;;;;;;-1.80;99.90;;;;;;5096358;28;19904;-40
2022/03/08 02:16:28;;;;;;;;;;;-1.80;99.90;;;;;;5096380;28;20350;-40
2022/03/08 02:18:53;;;;;;;;;;;-1.80;99.90;;;;;;5096089;28;20359;-40
2022/03/08 02:21:19;;;;;;;;;;;-1.90;99.90;;;;;;5094950;28;20006;-40
2022/03/08 02:23:44;;;;;;;;;;;-2.00;99.90;;;;;;5096154;28;19918;-40
2022/03/08 02:26:10;;;;;;;;;;;-1.90;99.90;;;;;;5096158;28;20224;-40
2022/03/08 02:28:35;;;;;;;;;;;-1.90;99.90;;;;;;5095838;28;19916;-40
2022/03/08 02:31:01;;;;;;;;;;;-1.90;99.90;;;;;;5094849;28;20284;-40
2022/03/08 02:33:26;;;;;;;;;;;-2.00;99.90;;;;;;5095894;28;20369;-40
2022/03/08 02:35:52;;;;;;;;;;;-1.90;99.90;;;;;;5095699;28;19904;-41
2022/03/08 02:38:17;;;;;;;;;;;-2.00;99.90;;;;;;5095942;28;19904;-40
2022/03/08 02:40:43;;;;;;;;;;;-2.00;99.90;;;;;;5095809;28;20274;-40
2022/03/08 02:43:10;;;;;;;;;;;-2.10;99.90;;;;;;5095636;28;19997;-40
2022/03/08 02:45:36;;;;;;;;;;;-2.00;99.90;;;;;;5094937;28;20305;-40
2022/03/08 02:48:01;;;;;;;;;;;-2.00;99.90;;;;;;5095517;28;19950;-40
2022/03/08 02:50:27;;;;;;;;;;;-2.10;99.90;;;;;;5095559;28;19926;-40
2022/03/08 02:52:53;;;;;;;;;;;-2.00;99.90;;;;;;5095583;28;19910;-41
2022/03/08 02:55:20;;;;;;;;;;;-2.00;99.90;;;;;;5095557;28;19905;-40
2022/03/08 02:57:46;;;;;;;;;;;-2.10;99.90;;;;;;5095427;28;19947;-40
2022/03/08 03:00:13;;;;;;;;;;;-2.10;99.90;;;;;;5095121;28;19927;-42
2022/03/08 03:02:38;;;;;;;;;;;-2.00;99.90;;;;;;5094852;28;19999;-40
2022/03/08 03:05:04;;;;;;;;;;;-2.10;99.90;;;;;;5094000;28;19939;-40
2022/03/08 03:07:30;;;;;;;;;;;-2.10;99.90;;;;;;5094974;28;19970;-41
2022/03/08 03:09:55;;;;;;;;;;;-2.10;99.90;;;;;;5095503;28;19904;-40
2022/03/08 03:12:21;;;;;;;;;;;-2.10;99.90;;;;;;5094916;28;19908;-40
2022/03/08 03:14:46;;;;;;;;;;;-2.00;99.90;;;;;;5094599;28;19911;-40
2022/03/08 03:17:12;;;;;;;;;;;-2.10;99.90;;;;;;5094807;28;20358;-41
2022/03/08 03:19:37;;;;;;;;;;;-2.00;99.90;;;;;;5095047;28;19911;-41
2022/03/08 03:22:03;;;;;;;;;;;-2.00;99.90;;;;;;5094622;28;19914;-40
2022/03/08 03:24:29;;;;;;;;;;;-2.00;99.90;;;;;;5094706;28;19983;-40
2022/03/08 03:26:54;;;;;;;;;;;-2.00;99.90;;;;;;5094673;28;20258;-41
2022/03/08 03:29:20;;;;;;;;;;;-2.10;99.90;;;;;;5094458;28;19916;-40
2022/03/08 03:31:45;;;;;;;;;;;-2.00;99.90;;;;;;5094435;28;19904;-40
2022/03/08 03:34:11;;;;;;;;;;;-2.00;99.90;;;;;;5094776;28;19904;-41
2022/03/08 03:36:36;;;;;;;;;;;-2.10;99.90;;;;;;5094749;28;20295;-40
2022/03/08 03:39:03;;;;;;;;;;;-2.10;99.90;;;;;;5094407;28;19904;-41
2022/03/08 03:41:28;;;;;;;;;;;-2.20;99.90;;;;;;5094605;28;19991;-40
2022/03/08 03:43:54;;;;;;;;;;;-2.20;99.90;;;;;;5094614;28;20278;-40
2022/03/08 03:46:20;;;;;;;;;;;-2.30;99.90;;;;;;5094704;28;20358;-40
2022/03/08 03:48:45;;;;;;;;;;;-2.20;99.90;;;;;;5094489;28;19904;-41
2022/03/08 03:51:11;;;;;;;;;;;-2.20;99.90;;;;;;5094302;28;19940;-40
2022/03/08 03:53:37;;;;;;;;;;;-2.20;99.90;;;;;;5094016;28;19905;-40
2022/03/08 03:56:02;;;;;;;;;;;-2.20;99.90;;;;;;5094346;28;19947;-40
2022/03/08 03:58:28;;;;;;;;;;;-2.30;99.90;;;;;;5093319;28;20207;-41
2022/03/08 04:00:53;;;;;;;;;;;-2.30;99.90;;;;;;5094099;28;19911;-40
2022/03/08 04:03:19;;;;;;;;;;;-2.30;99.90;;;;;;5093952;28;19919;-40
2022/03/08 04:05:45;;;;;;;;;;;-2.30;99.90;;;;;;5094056;28;19908;-40
2022/03/08 04:08:11;;;;;;;;;;;-2.30;99.90;;;;;;5093957;28;19904;-40
2022/03/08 04:10:37;;;;;;;;;;;-2.30;99.90;;;;;;5093829;28;19993;-40
2022/03/08 04:13:03;;;;;;;;;;;-2.20;99.90;;;;;;5094149;28;19957;-40
2022/03/08 04:15:29;;;;;;;;;;;-2.20;99.90;;;;;;5094436;28;19908;-40
2022/03/08 04:17:54;;;;;;;;;;;-2.30;99.90;;;;;;5094522;28;19904;-40
2022/03/08 04:20:20;;;;;;;;;;;-2.20;99.90;;;;;;5092992;28;19904;-41
2022/03/08 04:22:45;;;;;;;;;;;-2.20;99.90;;;;;;5094250;28;19991;-40
2022/03/08 04:25:11;;;;;;;;;;;-2.20;99.90;;;;;;5094089;28;19915;-40
2022/03/08 04:27:36;;;;;;;;;;;-2.20;99.90;;;;;;5097848;28;20349;-41
2022/03/08 04:30:03;;;;;;;;;;;-2.10;99.90;;;;;;5096734;28;20254;-40
2022/03/08 04:32:28;;;;;;;;;;;-2.10;99.90;;;;;;5098136;28;19923;-40
2022/03/08 04:34:54;;;;;;;;;;;-2.10;99.90;;;;;;5098016;28;19904;-40
2022/03/08 04:37:19;;;;;;;;;;;-2.20;99.90;;;;;;5098369;28;20234;-40
2022/03/08 04:39:45;;;;;;;;;;;-2.10;99.90;;;;;;5097659;28;19904;-41
2022/03/08 04:42:10;;;;;;;;;;;-2.10;99.90;;;;;;5097860;28;19908;-39
2022/03/08 04:44:38;;;;;;;;;;;-2.20;99.90;;;;;;5097568;28;19908;-40
2022/03/08 04:47:03;;;;;;;;;;;-2.10;99.90;;;;;;5097783;28;20274;-40
2022/03/08 04:49:29;;;;;;;;;;;-2.10;99.90;;;;;;5098013;28;19965;-40
2022/03/08 04:51:54;;;;;;;;;;;-2.10;99.90;;;;;;5097640;28;20214;-40
2022/03/08 04:54:20;;;;;;;;;;;-2.10;99.90;;;;;;5097565;28;20433;-40
2022/03/08 04:56:45;;;;;;;;;;;-2.20;99.90;;;;;;5097623;28;19911;-40
2022/03/08 04:59:11;;;;;;;;;;;-2.20;99.90;;;;;;5097590;28;19908;-40
2022/03/08 05:01:36;;;;;;;;;;;-2.10;99.90;;;;;;5097537;28;19904;-40
2022/03/08 05:04:02;;;;;;;;;;;-2.20;99.90;;;;;;5097326;28;20362;-40
2022/03/08 05:06:30;;;;;;;;;;;-2.10;99.90;;;;;;5097527;28;19904;-40
2022/03/08 05:08:55;;;;;;;;;;;-2.20;99.90;;;;;;5097144;28;19912;-41
2022/03/08 05:11:21;;;;;;;;;;;-2.10;99.90;;;;;;5097429;28;19904;-40
2022/03/08 05:13:47;;;;;;;;;;;-2.10;99.90;;;;;;5097196;28;20342;-40
2022/03/08 05:16:12;;;;;;;;;;;-2.10;99.90;;;;;;5097194;28;19986;-40
2022/03/08 05:18:38;;;;;;;;;;;-2.10;99.90;;;;;;5096945;28;19904;-40
2022/03/08 05:21:03;;;;;;;;;;;-2.10;99.90;;;;;;5096822;28;19904;-40
2022/03/08 05:23:29;;;;;;;;;;;-2.20;99.90;;;;;;5096989;28;19962;-40
2022/03/08 05:25:54;;;;;;;;;;;-2.20;99.90;;;;;;5097069;28;19912;-40
2022/03/08 05:28:20;;;;;;;;;;;-2.30;99.90;;;;;;5096560;28;19915;-40
2022/03/08 05:30:45;;;;;;;;;;;-2.20;99.90;;;;;;5097077;28;19909;-39
2022/03/08 05:33:11;;;;;;;;;;;-2.20;99.90;;;;;;5096446;28;19995;-39
2022/03/08 05:35:38;;;;;;;;;;;-2.30;99.90;;;;;;5092058;28;19908;-40
2022/03/08 05:38:04;;;;;;;;;;;-2.20;99.90;;;;;;5096373;28;19910;-40
2022/03/08 05:40:30;;;;;;;;;;;-2.00;99.90;;;;;;5096651;28;19998;-40
2022/03/08 05:42:55;;;;;;;;;;;-1.90;99.90;;;;;;5096556;28;19958;-40
2022/03/08 05:45:21;;;;;;;;;;;-2.00;99.90;;;;;;5096083;28;19923;-40
2022/03/08 05:47:47;;;;;;;;;;;-2.00;99.90;;;;;;5096615;28;19904;-40
2022/03/08 05:50:13;;;;;;;;;;;-2.10;99.90;;;;;;5096465;28;19957;-42
2022/03/08 05:52:39;;;;;;;;;;;-2.10;99.90;;;;;;5091349;28;20009;-40
2022/03/08 05:55:05;;;;;;;;;;;-2.00;99.90;;;;;;5091586;28;19974;-40
2022/03/08 05:57:30;;;;;;;;;;;-2.00;99.90;;;;;;5105016;28;19920;-40
2022/03/08 05:59:56;;;;;;;;;;;-1.90;99.90;;;;;;5096299;28;19911;-40
2022/03/08 06:02:22;;;;;;;;;;;-1.90;99.90;;;;;;5114766;28;20010;-41
2022/03/08 06:04:48;;;;;;;;;;;-1.80;99.90;;;;;;5116121;28;20273;-40
2022/03/08 06:07:13;;;;;;;;;;;-1.80;99.90;;;;;;5116466;28;19903;-40
2022/03/08 06:09:39;;;;;;;;;;;-1.80;99.90;;;;;;5115033;28;20247;-39
2022/03/08 06:12:05;;;;;;;;;;;-1.70;99.90;;;;;;5108323;28;19909;-40
2022/03/08 06:14:30;;;;;;;;;;;-1.70;99.90;;;;;;5095602;28;19907;-40
2022/03/08 06:16:56;;;;;;;;;;;-1.70;99.90;;;;;;5105661;28;19903;-40
2022/03/08 06:19:22;;;;;;;;;;;-1.60;99.90;;;;;;5114937;28;20298;-40
2022/03/08 06:21:47;;;;;;;;;;;-1.60;99.90;;;;;;5116124;28;19908;-40
2022/03/08 06:24:13;;;;;;;;;;;-1.50;99.90;;;;;;5115774;28;19949;-41
2022/03/08 06:26:39;;;;;;;;;;;-1.60;99.90;;;;;;5104079;28;19965;-41
2022/03/08 06:29:05;;;;;;;;;;;-1.50;99.90;;;;;;5095416;28;19920;-39
2022/03/08 06:31:30;;;;;;;;;;;-1.60;99.90;;;;;;5095572;28;19908;-40
2022/03/08 06:33:56;;;;;;;;;;;-1.60;99.90;;;;;;5094108;28;20365;-41
2022/03/08 06:36:21;;;;;;;;;;;-1.50;99.90;;;;;;5095112;28;19919;-40
2022/03/08 06:38:47;;;;;;;;;;;-1.50;99.90;;;;;;5094891;28;20391;-41
2022/03/08 06:41:13;;;;;;;;;;;-1.40;99.90;;;;;;5105751;28;20323;-40
2022/03/08 06:43:39;;;;;;;;;;;-1.40;99.90;;;;;;5115049;28;19998;-40
2022/03/08 06:46:05;;;;;;;;;;;-1.40;99.90;;;;;;5111907;28;19911;-41
2022/03/08 06:48:30;;;;;;;;;;;-1.30;99.90;;;;;;5098613;28;20373;-40
2022/03/08 06:50:56;;;;;;;;;;;-1.40;99.90;;;;;;5114678;28;19908;-40
2022/03/08 06:53:21;;;;;;;;;;;-1.40;99.90;;;;;;5103469;28;19908;-40
2022/03/08 06:55:47;;;;;;;;;;;-1.40;99.90;;;;;;5093337;28;19912;-40
2022/03/08 06:58:12;;;;;;;;;;;-1.30;99.90;;;;;;5094027;28;19908;-41
2022/03/08 07:00:38;;;;;;;;;;;-1.20;99.90;;;;;;5094508;28;19919;-41
2022/03/08 07:03:03;;;;;;;;;;;-1.20;99.90;;;;;;5094381;28;19912;-41
2022/03/08 07:05:29;;;;;;;;;;;-1.20;99.90;;;;;;5094411;28;19978;-40
2022/03/08 07:07:55;;;;;;;;;;;-1.10;99.90;;;;;;5093873;28;19908;-40
2022/03/08 07:10:20;;;;;;;;;;;-1.10;99.90;;;;;;5094053;28;19912;-41
2022/03/08 07:12:46;;;;;;;;;;;-0.90;99.90;;;;;;5094217;28;19918;-41
2022/03/08 07:15:14;;;;;;;;;;;-0.60;99.90;;;;;;5094385;28;20301;-40
2022/03/08 07:17:43;;;;;;;;;;;-0.60;99.90;;;;;;5093981;28;19912;-40
2022/03/08 07:20:09;;;;;;;;;;;-0.40;99.90;;;;;;5094428;28;20259;-40
2022/03/08 07:22:36;;;;;;;;;;;-0.30;99.90;;;;;;5093738;28;19912;-40
2022/03/08 07:25:02;;;;;;;;;;;-0.20;99.90;;;;;;5094815;28;19912;-41
2022/03/08 07:27:27;;;;;;;;;;;0.00;99.90;;;;;;5104583;28;19912;-41
2022/03/08 07:29:53;;;;;;;;;;;0.00;99.90;;;;;;5093455;28;20286;-40
2022/03/08 07:32:19;;;;;;;;;;;0.10;99.90;;;;;;5106362;28;20326;-41
2022/03/08 07:34:45;;;;;;;;;;;0.30;99.90;;;;;;5114293;28;20252;-41
2022/03/08 07:37:10;;;;;;;;;;;0.50;99.90;;;;;;5113803;28;19908;-40
2022/03/08 07:39:36;;;;;;;;;;;0.50;99.90;;;;;;5113658;28;19908;-40
2022/03/08 07:42:02;;;;;;;;;;;0.70;99.90;;;;;;5092901;28;19912;-41
2022/03/08 07:44:27;;;;;;;;;;;1.00;99.90;;;;;;5093269;28;19912;-41
2022/03/08 07:46:53;;;;;;;;;;;1.30;99.90;;;;;;5093657;28;19908;-41
2022/03/08 07:49:19;;;;;;;;;;;1.50;99.90;;;;;;5092096;28;19908;-41
2022/03/08 07:51:44;;;;;;;;;;;1.70;99.90;;;;;;5093618;28;19915;-41
2022/03/08 07:54:10;;;;;;;;;;;1.90;99.90;;;;;;5092127;28;19958;-40
2022/03/08 07:56:35;;;;;;;;;;;1.70;99.90;;;;;;5093246;28;19908;-41
2022/03/08 07:59:01;;;;;;;;;;;1.50;99.90;;;;;;5093009;28;19908;-44
2022/03/08 08:01:26;;;;;;;;;;;1.40;99.90;;;;;;5092490;28;19965;-41
2022/03/08 08:03:52;;;;;;;;;;;1.50;99.90;;;;;;5086710;28;19985;-41
2022/03/08 08:06:17;;;;;;;;;;;1.70;99.90;;;;;;5091436;28;20301;-42
2022/03/08 08:08:43;;;;;;;;;;;1.40;99.90;;;;;;5099923;28;20419;-41
2022/03/08 08:11:08;;;;;;;;;;;1.40;99.90;;;;;;5114432;28;20099;-41
2022/03/08 08:13:34;;;;;;;;;;;1.30;99.90;;;;;;5096212;28;20442;-41
2022/03/08 08:16:00;;;;;;;;;;;1.10;99.90;;;;;;5113290;28;19999;-42
2022/03/08 08:18:26;;;;;;;;;;;1.20;99.90;;;;;;5105957;28;19948;-41
2022/03/08 08:20:51;;;;;;;;;;;1.30;99.90;;;;;;5092891;28;20408;-41
2022/03/08 08:23:17;;;;;;;;;;;1.40;99.90;;;;;;5103580;28;19924;-43
2022/03/08 08:25:42;;;;;;;;;;;1.50;99.90;;;;;;5099279;28;19912;-41
2022/03/08 08:28:08;;;;;;;;;;;1.60;99.90;;;;;;5111778;28;19990;-41
2022/03/08 08:30:34;;;;;;;;;;;1.80;99.90;;;;;;5100272;28;19908;-41
2022/03/08 08:33:00;;;;;;;;;;;1.70;99.90;;;;;;5092820;28;19912;-42
2022/03/08 08:35:25;;;;;;;;;;;1.60;99.90;;;;;;5088748;28;19912;-42
2022/03/08 08:37:51;;;;;;;;;;;1.90;99.90;;;;;;5095613;28;19912;-42
2022/03/08 08:40:17;;;;;;;;;;;2.00;99.80;;;;;;5073933;28;19999;-41
2022/03/08 08:42:42;;;;;;;;;;;2.00;99.90;;;;;;5074014;28;19923;-42
2022/03/08 08:45:08;;;;;;;;;;;2.10;99.90;;;;;;5073944;28;19916;-42
2022/03/08 08:47:34;;;;;;;;;;;2.30;99.90;;;;;;5115155;28;19962;-42
2022/03/08 08:49:59;;;;;;;;;;;2.60;99.60;;;;;;5092596;28;20278;-42
2022/03/08 08:52:25;;;;;;;;;;;2.70;99.10;;;;;;5074966;28;19916;-42
2022/03/08 08:54:50;;;;;;;;;;;2.80;99.90;;;;;;5073889;28;20343;-42
2022/03/08 08:57:16;;;;;;;;;;;3.20;99.90;;;;;;5074966;28;20359;-41
2022/03/08 08:59:41;;;;;;;;;;;3.10;98.80;;;;;;5076486;28;19912;-42
2022/03/08 09:02:07;;;;;;;;;;;3.00;98.20;;;;;;5087765;28;20014;-42
2022/03/08 09:04:34;;;;;;;;;;;2.80;97.70;;;;;;5074884;28;19916;-41
2022/03/08 09:06:59;;;;;;;;;;;3.00;98.00;;;;;;5074502;28;20227;-40
2022/03/08 09:09:25;;;;;;;;;;;3.10;98.00;;;;;;5083553;28;19912;-41
2022/03/08 09:11:51;;;;;;;;;;;3.00;96.90;;;;;;5089293;28;20003;-42
2022/03/08 09:14:16;;;;;;;;;;;3.10;96.70;;;;;;5094578;28;19917;-41
2022/03/08 09:16:42;;;;;;;;;;;3.20;96.90;;;;;;5082886;28;19913;-42
2022/03/08 09:19:08;;;;;;;;;;;3.20;96.70;;;;;;5078104;28;20350;-41
2022/03/08 09:21:34;;;;;;;;;;;3.40;97.60;;;;;;5082664;28;20014;-42
2022/03/08 09:24:00;;;;;;;;;;;3.50;96.60;;;;;;5109485;28;19930;-41
2022/03/08 09:26:25;;;;;;;;;;;3.70;96.80;;;;;;5092510;28;19952;-42
2022/03/08 09:28:51;;;;;;;;;;;3.80;96.60;;;;;;5095710;28;20343;-41
2022/03/08 09:31:16;;;;;;;;;;;4.10;96.80;;;;;;5095713;28;19952;-42
2022/03/08 09:33:42;;;;;;;;;;;4.00;96.40;;;;;;5095850;28;20347;-43
2022/03/08 09:36:08;;;;;;;;;;;4.00;95.60;;;;;;5095791;28;19912;-42
2022/03/08 09:38:34;;;;;;;;;;;4.30;96.30;;;;;;5095734;28;19912;-41
2022/03/08 09:41:01;;;;;;;;;;;4.30;95.70;;;;;;5095765;28;20282;-42
2022/03/08 09:43:27;;;;;;;;;;;4.50;96.60;;;;;;5095523;28;19960;-43
2022/03/08 09:45:52;;;;;;;;;;;4.40;95.70;;;;;;5094927;28;20683;-42
2022/03/08 09:48:18;;;;;;;;;;;4.60;95.50;;;;;;5094327;28;19919;-41
2022/03/08 09:50:44;;;;;;;;;;;4.60;95.30;;;;;;5095203;28;19912;-41
2022/03/08 09:53:10;;;;;;;;;;;4.70;95.30;;;;;;5095574;28;19938;-41
2022/03/08 09:55:35;;;;;;;;;;;4.90;96.40;;;;;;5094669;28;19912;-42
2022/03/08 09:58:01;;;;;;;;;;;5.10;95.50;;;;;;5089024;28;19912;-42
2022/03/08 10:00:28;;;;;;;;;;;5.40;95.80;;;;;;5076407;28;19913;-41
2022/03/08 10:02:54;;;;;;;;;;;5.20;94.20;;;;;;5076394;28;20027;-42
2022/03/08 10:05:25;;;;;;;;;;;5.30;94.70;;;;;;5081714;28;19916;-42
2022/03/08 10:08:05;;;;;;;;;;;5.10;93.00;;;;;;5078601;28;19931;-42
2022/03/08 10:10:31;;;;;;;;;;;5.20;93.40;;;;;;5087395;28;19938;-42
2022/03/08 10:12:57;;;;;;;;;;;5.10;92.20;;;;;;5094463;28;20002;-42
2022/03/08 10:15:22;;;;;;;;;;;4.80;91.90;;;;;;5077205;28;19955;-42
2022/03/08 10:17:48;;;;;;;;;;;5.00;92.30;;;;;;5077275;28;19924;-42
2022/03/08 10:20:26;;;;;;;;;;;5.00;92.80;;;;;;5085048;28;19920;-42
2022/03/08 10:22:51;;;;;;;;;;;5.30;92.20;;;;;;5078669;28;19916;-41
2022/03/08 10:25:18;;;;;;;;;;;5.10;91.10;;;;;;5094502;28;19916;-43
2022/03/08 10:28:04;;;;;;;;;;;5.30;91.20;;;;;;5088317;28;19957;-41
2022/03/08 10:30:48;;;;;;;;;;;5.60;92.60;;;;;;5076606;28;20298;-41
2022/03/08 10:33:19;;;;;;;;;;;5.80;91.90;;;;;;5083932;28;19919;-41
2022/03/08 10:35:45;;;;;;;;;;;5.60;91.10;;;;;;5078257;28;19919;-41
2022/03/08 10:38:14;;;;;;;;;;;5.50;89.90;;;;;;5077736;28;19912;-41
2022/03/08 10:40:40;;;;;;;;;;;5.40;90.60;;;;;;5095267;28;20017;-41
2022/03/08 10:43:07;;;;;;;;;;;5.60;90.30;;;;;;5102530;28;19916;-40
2022/03/08 10:45:34;;;;;;;;;;;5.70;89.00;;;;;;5092075;28;19912;-42
2022/03/08 10:48:00;;;;;;;;;;;5.70;88.10;;;;;;5098445;28;19919;-41
2022/03/08 10:50:34;;;;;;;;;;;6.00;89.30;;;;;;5114966;28;20002;-42
2022/03/08 10:53:02;;;;;;;;;;;6.30;91.00;;;;;;5103016;28;19912;-40
2022/03/08 10:55:38;;;;;;;;;;;6.40;86.70;;;;;;5099204;28;20323;-41
2022/03/08 10:58:08;;;;;;;;;;;6.00;85.50;;;;;;5091161;28;19912;-41
2022/03/08 11:00:41;;;;;;;;;;;5.80;85.30;;;;;;5087364;28;19994;-40
2022/03/08 11:03:11;;;;;;;;;;;5.70;84.70;;;;;;5085273;28;20405;-40
2022/03/08 11:05:38;;;;;;;;;;;5.60;84.20;;;;;;5101824;28;20362;-41
2022/03/08 11:08:04;;;;;;;;;;;6.00;86.00;;;;;;5113084;28;19911;-41
2022/03/08 11:10:31;;;;;;;;;;;6.00;85.20;;;;;;5099856;28;19934;-41
2022/03/08 11:12:57;;;;;;;;;;;6.30;86.20;;;;;;5091794;28;19912;-42
2022/03/08 11:15:23;;;;;;;;;;;6.50;82.70;;;;;;5093184;28;19912;-41
2022/03/08 11:17:51;;;;;;;;;;;6.70;83.30;;;;;;5093090;28;19972;-42
2022/03/08 11:20:17;;;;;;;;;;;6.70;82.00;;;;;;5093560;28;20007;-42
2022/03/08 11:22:44;;;;;;;;;;;6.80;83.20;;;;;;5093626;28;20004;-41
2022/03/08 11:25:11;;;;;;;;;;;6.40;82.40;;;;;;5092734;28;20005;-41
2022/03/08 11:27:38;;;;;;;;;;;6.50;82.50;;;;;;5092633;28;19926;-41
2022/03/08 11:30:05;;;;;;;;;;;6.60;81.60;;;;;;5093237;28;19920;-42
2022/03/08 11:32:43;;;;;;;;;;;6.70;82.80;;;;;;5092865;28;19912;-41
2022/03/08 11:35:15;;;;;;;;;;;6.70;81.00;;;;;;5092122;28;19920;-41
2022/03/08 11:37:41;;;;;;;;;;;6.90;83.60;;;;;;5093044;28;19916;-41
2022/03/08 11:40:11;;;;;;;;;;;6.70;78.70;;;;;;5093143;28;19982;-41
2022/03/08 11:42:41;;;;;;;;;;;6.90;83.70;;;;;;5093169;28;19936;-42
2022/03/08 11:45:11;;;;;;;;;;;7.00;80.60;;;;;;5093277;28;19916;-42
2022/03/08 11:47:42;;;;;;;;;;;7.00;78.40;;;;;;5091769;28;20412;-40
2022/03/08 11:50:38;;;;;;;;;;;6.90;77.50;;;;;;5097851;28;19950;-41
2022/03/08 11:53:06;;;;;;;;;;;6.80;78.50;;;;;;5084980;28;19951;-41
2022/03/08 11:55:44;;;;;;;;;;;6.80;78.00;;;;;;5093520;28;19914;-42
2022/03/08 11:58:14;;;;;;;;;;;6.70;78.10;;;;;;5081314;28;19943;-41
2022/03/08 12:00:53;;;;;;;;;;;6.70;76.20;;;;;;5074382;28;19924;-41
2022/03/08 12:03:24;;;;;;;;;;;6.80;74.00;;;;;;5075244;28;19920;-42
2022/03/08 12:05:50;;;;;;;;;;;6.90;76.50;;;;;;5092965;28;19923;-44
2022/03/08 12:08:21;;;;;;;;;;;6.80;75.00;;;;;;5090860;28;19912;-41
2022/03/08 12:10:48;;;;;;;;;;;6.70;75.10;;;;;;5093766;28;19912;-42
2022/03/08 12:13:14;;;;;;;;;;;6.70;76.30;;;;;;5092088;28;19912;-42
2022/03/08 12:15:58;;;;;;;;;;;7.00;76.90;;;;;;5080111;28;19943;-42
2022/03/08 12:18:32;;;;;;;;;;;7.00;74.00;;;;;;5084536;28;20212;-41
2022/03/08 12:21:24;;;;;;;;;;;6.80;72.00;;;;;;5087603;28;19916;-41
2022/03/08 12:24:08;;;;;;;;;;;6.80;74.40;;;;;;5069217;28;19917;-44
2022/03/08 12:26:38;;;;;;;;;;;6.90;74.30;;;;;;5088142;28;19924;-41
2022/03/08 12:29:22;;;;;;;;;;;6.90;77.10;;;;;;5083834;28;19959;-42
2022/03/08 12:31:57;;;;;;;;;;;7.20;75.30;;;;;;5080087;28;19917;-43
2022/03/08 12:34:45;;;;;;;;;;;7.50;77.00;;;;;;5072918;28;19995;-42
2022/03/08 12:37:10;;;;;;;;;;;7.60;75.10;;;;;;5087444;28;19916;-42
2022/03/08 12:39:45;;;;;;;;;;;7.70;78.50;;;;;;5092806;28;19995;-42
2022/03/08 12:42:26;;;;;;;;;;;7.70;74.10;;;;;;5093496;28;19982;-42
2022/03/08 12:45:03;;;;;;;;;;;7.50;73.30;;;;;;5083747;28;19923;-43
2022/03/08 12:47:30;;;;;;;;;;;7.50;73.00;;;;;;5088198;28;20413;-41
2022/03/08 12:49:58;;;;;;;;;;;7.50;73.30;;;;;;5094746;28;19912;-42
2022/03/08 12:52:26;;;;;;;;;;;7.40;72.00;;;;;;5096682;28;19915;-42
2022/03/08 12:54:52;;;;;;;;;;;7.20;71.60;;;;;;5089772;28;19912;-42
2022/03/08 12:57:19;;;;;;;;;;;7.20;72.30;;;;;;5078283;28;19913;-41
2022/03/08 12:59:52;;;;;;;;;;;7.20;71.20;;;;;;5075746;28;20375;-42
2022/03/08 13:02:18;;;;;;;;;;;7.40;71.00;;;;;;5088380;28;20282;-42
2022/03/08 13:04:44;;;;;;;;;;;7.40;70.70;;;;;;5078060;28;19916;-41
2022/03/08 13:07:14;;;;;;;;;;;7.60;75.20;;;;;;5076116;28;19912;-42
2022/03/08 13:09:50;;;;;;;;;;;7.80;75.60;;;;;;5077246;28;19924;-42
2022/03/08 13:12:16;;;;;;;;;;;7.80;72.40;;;;;;5092786;28;19962;-44
2022/03/08 13:14:42;;;;;;;;;;;7.50;74.00;;;;;;5093511;28;20374;-41
2022/03/08 13:17:07;;;;;;;;;;;7.50;73.00;;;;;;5096163;28;19915;-42
2022/03/08 13:19:37;;;;;;;;;;;7.70;72.20;;;;;;5082940;28;19913;-42
2022/03/08 13:22:03;;;;;;;;;;;7.90;71.70;;;;;;5093777;28;19912;-42
2022/03/08 13:24:28;;;;;;;;;;;7.70;71.90;;;;;;5082493;28;19916;-42
2022/03/08 13:27:02;;;;;;;;;;;7.80;73.40;;;;;;5079356;28;20278;-42
2022/03/08 13:29:28;;;;;;;;;;;7.80;72.90;;;;;;5096324;28;19963;-42
2022/03/08 13:31:53;;;;;;;;;;;8.00;74.20;;;;;;5091933;28;19920;-42
2022/03/08 13:34:19;;;;;;;;;;;8.20;73.10;;;;;;5085583;28;19985;-42
2022/03/08 13:36:55;;;;;;;;;;;8.20;78.20;;;;;;5096778;28;20323;-42
2022/03/08 13:39:20;;;;;;;;;;;8.00;71.70;;;;;;5110623;28;19912;-43
2022/03/08 13:41:46;;;;;;;;;;;7.90;71.80;;;;;;5105417;28;20397;-41
2022/03/08 13:44:14;;;;;;;;;;;7.60;72.50;;;;;;5116286;28;19920;-41
2022/03/08 13:46:40;;;;;;;;;;;7.80;74.50;;;;;;5099927;28;20318;-42
2022/03/08 13:49:07;;;;;;;;;;;7.50;74.30;;;;;;5093795;28;19919;-44
2022/03/08 13:51:34;;;;;;;;;;;7.60;74.30;;;;;;5092560;28;19908;-41
2022/03/08 13:54:00;;;;;;;;;;;7.60;76.30;;;;;;5094026;28;20041;-44
2022/03/08 13:56:26;;;;;;;;;;;7.60;73.00;;;;;;5094709;28;20023;-43
2022/03/08 13:58:54;;;;;;;;;;;7.70;74.00;;;;;;5093334;28;19970;-42
2022/03/08 14:01:24;;;;;;;;;;;7.60;73.40;;;;;;5095137;28;19916;-40
2022/03/08 14:03:52;;;;;;;;;;;7.40;73.80;;;;;;5094358;28;20327;-41
2022/03/08 14:06:21;;;;;;;;;;;7.60;74.30;;;;;;5092203;28;19926;-42
2022/03/08 14:08:48;;;;;;;;;;;7.60;73.80;;;;;;5096372;28;20481;-43
2022/03/08 14:11:16;;;;;;;;;;;7.70;74.70;;;;;;5101778;28;19912;-43
2022/03/08 14:13:58;;;;;;;;;;;7.80;73.90;;;;;;5099380;28;19919;-43
2022/03/08 14:16:43;;;;;;;;;;;8.00;73.60;;;;;;5101312;28;19908;-42
2022/03/08 14:19:09;;;;;;;;;;;8.10;74.40;;;;;;5094527;28;19955;-41
2022/03/08 14:21:36;;;;;;;;;;;8.00;73.20;;;;;;5097235;28;19912;-41